createdAt,value
2018-06-30T00:59:36.847Z,0.00
2018-06-30T01:00:57.792Z,0.00
2018-06-30T01:01:36.739Z,0.00
2018-06-30T01:02:36.751Z,0.00
2018-06-30T01:03:38.809Z,0.00
2018-06-30T01:04:36.745Z,0.00
2018-06-30T01:05:36.770Z,0.00
2018-06-30T01:06:36.637Z,0.00
2018-06-30T01:07:43.649Z,0.00
2018-06-30T02:34:51.311Z,0.00
2018-06-30T02:35:51.243Z,4.00
2018-06-30T02:36:51.225Z,4.00
2018-06-30T02:37:51.200Z,4.00
2018-06-30T02:38:51.248Z,4.00
2018-06-30T02:39:51.162Z,4.00
2018-06-30T02:40:51.161Z,4.00
2018-06-30T02:41:51.118Z,8.00
2018-06-30T02:42:51.083Z,4.00
2018-06-30T02:43:51.078Z,4.00
2018-06-30T02:44:51.047Z,8.00
2018-06-30T02:45:51.093Z,8.00
2018-06-30T02:46:50.995Z,8.00
2018-06-30T02:47:51.104Z,8.00
2018-06-30T02:48:50.965Z,8.00
2018-06-30T02:49:51.015Z,12.00
2018-06-30T02:50:50.925Z,12.00
2018-06-30T02:51:51.957Z,16.00
2018-06-30T02:52:50.877Z,16.00
2018-06-30T02:53:51.991Z,16.00
2018-06-30T02:54:50.829Z,20.00
2018-06-30T02:55:50.843Z,20.00
2018-06-30T02:56:50.801Z,20.00
2018-06-30T02:57:50.901Z,24.00
2018-06-30T02:58:50.726Z,28.00
2018-06-30T02:59:50.763Z,32.00
2018-06-30T03:00:50.690Z,36.00
2018-06-30T03:01:50.783Z,40.00
2018-06-30T03:02:50.648Z,44.00
2018-06-30T03:03:50.699Z,48.00
2018-06-30T03:04:50.596Z,52.00
2018-06-30T03:05:51.633Z,56.00
2018-06-30T03:06:50.555Z,60.00
2018-06-30T03:07:50.537Z,64.00
2018-06-30T03:08:50.520Z,68.00
2018-06-30T03:09:50.537Z,68.00
2018-06-30T03:10:50.472Z,72.00
2018-06-30T03:11:50.546Z,80.00
2018-06-30T03:12:50.420Z,84.00
2018-06-30T03:13:50.454Z,88.00
2018-06-30T03:14:50.384Z,96.00
2018-06-30T03:15:50.496Z,100.00
2018-06-30T03:16:50.339Z,108.00
2018-06-30T03:17:51.410Z,116.00
2018-06-30T03:18:50.289Z,124.00
2018-06-30T03:19:50.287Z,136.00
2018-06-30T03:20:50.243Z,140.00
2018-06-30T03:21:50.226Z,144.00
2018-06-30T03:22:50.207Z,156.00
2018-06-30T03:23:50.179Z,168.00
2018-06-30T03:24:50.156Z,176.00
2018-06-30T03:25:50.133Z,188.00
2018-06-30T03:26:50.113Z,196.00
2018-06-30T03:27:51.094Z,208.00
2018-06-30T03:28:50.063Z,216.00
2018-06-30T03:29:50.057Z,232.00
2018-06-30T03:30:50.027Z,240.00
2018-06-30T03:31:50.037Z,252.00
2018-06-30T03:32:50.004Z,264.00
2018-06-30T03:33:49.995Z,284.00
2018-06-30T03:34:49.948Z,304.00
2018-06-30T03:35:54.527Z,324.00
2018-06-30T03:36:49.879Z,344.00
2018-06-30T03:37:49.883Z,356.00
2018-06-30T03:38:49.854Z,372.00
2018-06-30T03:39:49.833Z,384.00
2018-06-30T03:40:49.806Z,388.00
2018-06-30T03:41:49.782Z,400.00
2018-06-30T03:42:49.748Z,416.00
2018-06-30T03:43:49.777Z,428.00
2018-06-30T03:44:49.731Z,436.00
2018-06-30T03:45:49.696Z,456.00
2018-06-30T03:47:35.683Z,460.00
2018-06-30T03:48:35.624Z,476.00
2018-06-30T03:49:35.587Z,496.00
2018-06-30T03:50:35.575Z,516.00
2018-06-30T03:51:35.528Z,536.00
2018-06-30T03:52:35.516Z,552.00
2018-06-30T03:53:35.490Z,580.00
2018-06-30T03:54:35.470Z,600.00
2018-06-30T03:55:35.468Z,620.00
2018-06-30T03:56:48.155Z,644.00
2018-06-30T03:57:35.430Z,664.00
2018-06-30T03:58:36.510Z,676.00
2018-06-30T03:59:35.662Z,692.00
2018-06-30T04:00:48.203Z,716.00
2018-06-30T04:01:35.326Z,728.00
2018-06-30T04:02:36.514Z,740.00
2018-06-30T04:03:35.275Z,752.00
2018-06-30T04:06:39.375Z,780.00
